Latest Weather Observations for Weipa

IDQ60801

Issued at 3:32 pm EST Sunday 22 January 2017 (issued every 30 minutes, with the page automatically refreshed every 10 minutes)

About weather observations | Map of weather stations | Latest weather observations for QLD | Other Formats
Station Details ID: 027045 Name: WEIPA AERO Lat: -12.68 Lon: 141.92 Height: 17.96 m
Data from the previous 72 hours. | See also: Recent months at Weipa
Date/Time
EST
Temp
°C
App
Temp
°C
Dew
Point
°C
Rel
Hum
%
Delta-T
°C
Wind Press
QNH
hPa
Press
MSL
hPa
Rain since
9am
mm
Dir  Spd
km/h
Gust
km/h
Spd
kts
Gust
kts
22/03:30pm 28.0 30.3 24.1 79 2.7 WNW 19 32 10 17 1007.7 - -
22/03:24pm 28.3 30.6 24.1 78 2.9 WNW 19 32 10 17 1007.7 - -
22/03:12pm 27.2 29.0 23.5 80 2.5 WNW 20 32 11 17 1007.9 - -
22/03:00pm 29.0 31.2 24.3 76 3.3 WNW 20 35 11 19 1007.8 1007.6 -
22/02:30pm 29.3 30.8 24.3 74 3.5 NW 24 35 13 19 1007.8 - -
22/02:00pm 29.4 31.1 24.0 72 3.7 NW 22 30 12 16 1008.2 - -
22/01:30pm 28.4 30.3 23.8 76 3.2 WNW 20 30 11 16 1008.6 - -
22/01:00pm 28.4 31.3 24.5 79 2.7 WNW 17 30 9 16 1009.0 - -
22/12:30pm 26.7 31.0 24.9 90 1.3 WNW 11 19 6 10 1009.4 - -
22/12:00pm - - - - - WNW 17 30 9 16 - - -
22/11:49am 26.1 28.9 24.3 90 1.2 WNW 17 26 9 14 1009.9 - -
22/11:30am 26.4 29.2 24.3 88 1.5 W 17 24 9 13 1010.1 - -
22/11:09am 29.2 29.0 24.0 73 3.6 WNW 32 41 17 22 1009.9 - -
22/11:00am 29.4 32.9 25.5 79 2.8 NNW 17 22 9 12 1010.0 - -
22/10:30am - - - - - NNW 17 22 9 12 - - -
22/10:00am - - - - - - - - - - - - -
22/09:46am 28.8 32.0 24.3 76 3.1 NW 15 22 8 12 1010.5 - 0.0
22/09:30am 28.2 31.1 24.5 80 2.6 NNW 17 24 9 13 1010.4 - 0.0
22/09:00am 27.5 31.1 24.3 83 2.2 NNW 13 19 7 10 1010.4 1010.2 63.0
22/08:30am 27.4 31.5 24.5 84 2.0 NW 11 19 6 10 1010.3 - 63.0
22/08:00am 26.5 31.0 23.9 85 1.8 NNW 7 11 4 6 1010.0 - 63.0
22/07:30am 25.5 30.0 23.6 89 1.3 NNW 6 9 3 5 1009.6 - 63.0
22/07:00am 24.9 29.1 23.5 92 1.0 NNW 7 9 4 5 1009.4 - 63.0
22/06:30am 24.6 29.4 23.5 94 0.7 NNW 4 9 2 5 1009.2 - 63.0
22/06:00am 24.7 29.0 23.6 94 0.8 N 7 13 4 7 1009.0 1008.8 63.0
22/05:30am 24.8 28.8 23.8 94 0.7 N 9 17 5 9 1008.7 - 63.0
22/05:00am 24.7 28.7 23.8 95 0.6 NNE 9 13 5 7 1008.3 - 63.0
22/04:30am 24.8 29.3 23.9 95 0.6 NNE 7 11 4 6 1008.2 - 63.0
22/04:00am 24.7 29.4 23.9 95 0.5 NE 6 9 3 5 1008.4 - 63.0
22/03:30am 24.6 29.5 23.7 95 0.6 ENE 4 7 2 4 1008.6 - 63.0
22/03:05am 24.6 29.0 23.8 95 0.5 E 7 9 4 5 1008.7 - 63.0
22/03:00am 24.7 29.3 23.8 95 0.6 E 6 7 3 4 1008.8 1008.6 63.0
22/02:38am 24.6 29.0 23.8 95 0.5 NNW 7 17 4 9 1009.3 - 62.0
22/02:30am 24.6 30.0 23.8 95 0.5 NE 2 6 1 3 1009.0 - 60.8
22/02:00am 24.6 29.6 23.8 95 0.5 E 4 6 2 3 1009.1 - 60.8
22/01:30am 24.8 30.2 23.9 95 0.6 NNE 2 6 1 3 1009.1 - 60.8
22/01:00am 24.9 30.7 24.0 95 0.6 CALM 0 0 0 0 1009.3 - 60.8
22/12:30am 24.9 30.7 24.0 95 0.6 CALM 0 0 0 0 1009.5 - 60.8
22/12:00am 24.9 30.7 24.0 95 0.6 CALM 0 4 0 2 1009.7 1009.5 60.8
 
Date/Time
EST
Temp
°C
App
Temp
°C
Dew
Point
°C
Rel
Hum
%
Delta-T
°C
Wind Press
QNH
hPa
Press
MSL
hPa
Rain since
9am
mm
Dir  Spd
km/h
Gust
km/h
Spd
kts
Gust
kts
21/11:36pm 25.0 29.6 24.1 95 0.6 NNE 7 9 4 5 1009.7 - 60.8
21/11:30pm 25.0 29.6 24.1 95 0.6 NNE 7 9 4 5 1009.7 - 60.8
21/11:00pm 25.0 29.8 24.2 95 0.6 ENE 6 11 3 6 1009.9 - 60.8
21/10:32pm 24.9 29.5 24.1 95 0.5 ENE 7 11 4 6 1009.6 - 60.8
21/10:30pm 24.9 29.5 24.1 95 0.5 ENE 7 9 4 5 1009.6 - 60.8
21/10:00pm 24.8 29.5 23.9 95 0.6 ENE 6 9 3 5 1009.1 - 60.8
21/09:30pm 24.8 29.3 23.9 95 0.6 ESE 7 11 4 6 1008.5 - 60.8
21/09:00pm 25.1 30.7 24.2 95 0.6 SE 2 2 1 1 1007.8 1007.6 60.8
21/08:30pm 25.2 30.8 24.3 95 0.6 NNE 2 2 1 1 1007.4 - 60.8
21/08:00pm 25.3 30.6 24.4 95 0.6 NNW 4 6 2 3 1007.4 - 60.8
21/07:30pm 25.4 31.4 24.3 94 0.8 CALM 0 2 0 1 1007.5 - 60.8
21/07:00pm 25.5 31.6 24.4 94 0.8 CALM 0 0 0 0 1007.6 - 60.8
21/06:30pm 25.6 31.7 24.4 93 0.8 CALM 0 2 0 1 1007.9 - 60.8
21/06:00pm 25.7 30.6 24.4 92 0.9 NNE 6 9 3 5 1008.0 1007.8 60.6
21/05:30pm 25.9 32.0 24.5 92 1.0 CALM 0 4 0 2 1008.0 - 60.6
21/05:00pm 25.6 31.3 24.4 93 0.8 W 2 6 1 3 1008.0 - 60.6
21/04:30pm 25.2 29.8 24.1 94 0.8 WSW 7 13 4 7 1008.4 - 60.6
21/04:25pm 25.2 29.8 24.1 94 0.8 WSW 7 13 4 7 1008.4 - 60.6
21/04:00pm 24.9 29.6 24.0 95 0.6 WSW 6 9 3 5 1008.3 - 59.8
21/03:53pm 24.9 29.6 24.0 95 0.6 WSW 6 13 3 7 1008.2 - 59.6
21/03:30pm 24.7 29.2 23.7 94 0.7 W 6 11 3 6 1008.2 - 59.4
21/03:00pm 24.0 27.6 23.0 94 0.7 WSW 9 19 5 10 1008.6 1008.4 58.8
21/02:54pm 23.9 27.0 22.9 94 0.7 WSW 11 19 6 10 1008.7 - 58.6
21/02:30pm 24.8 30.3 24.0 95 0.5 W 2 6 1 3 1008.9 - 58.0
21/02:00pm 24.6 29.9 23.7 95 0.6 WNW 2 4 1 2 1009.0 - 55.4
21/01:43pm 24.4 29.2 23.5 95 0.6 S 4 11 2 6 1009.2 - 54.4
21/01:30pm 24.7 29.1 23.8 95 0.6 SE 7 11 4 6 1009.4 - 52.0
21/01:00pm 25.2 29.5 24.3 95 0.6 SW 9 20 5 11 1009.6 - 36.4
21/12:51pm 25.2 29.9 24.3 95 0.6 NNE 7 17 4 9 1009.7 - 33.8
21/12:45pm 25.2 29.1 24.3 95 0.6 NE 11 17 6 9 1009.6 - 31.8
21/12:30pm 25.1 29.4 24.3 95 0.6 ENE 9 13 5 7 1009.7 - 30.8
21/12:26pm 25.2 29.5 24.3 95 0.6 ENE 9 13 5 7 1009.7 - 30.6
21/12:12pm 25.1 29.9 24.2 95 0.6 ENE 6 9 3 5 1010.0 - 30.4
21/12:00pm 25.1 29.7 24.2 95 0.6 E 7 11 4 6 1010.1 1009.9 27.6
21/11:47am 25.2 30.1 24.3 95 0.6 E 6 7 3 4 1010.2 - 23.2
21/11:34am 25.1 30.7 24.2 95 0.6 ESE 2 6 1 3 1010.1 - 22.2
21/11:30am 25.0 30.5 24.1 95 0.6 E 2 4 1 2 1010.2 - 22.2
21/11:12am 25.2 30.0 24.2 94 0.7 NNW 6 7 3 4 1010.7 - 21.4
21/11:00am 25.1 29.2 24.0 94 0.8 N 9 17 5 9 1011.0 - 19.6
21/10:30am 25.9 29.6 24.6 92 0.9 W 13 26 7 14 1010.7 - 7.6
21/10:00am 28.3 33.0 25.0 82 2.3 WSW 9 17 5 9 1010.3 - 1.6
21/09:58am 28.5 33.1 24.7 80 2.7 WSW 9 15 5 8 1010.2 - 0.8
21/09:30am 29.2 34.1 25.3 79 2.7 W 9 17 5 9 1010.3 - 0.0
21/09:00am 28.8 34.1 25.0 80 2.7 W 6 13 3 7 1010.4 1010.2 12.0
21/08:42am 28.5 33.9 25.1 82 2.4 WNW 6 11 3 6 1010.4 - 12.0
21/08:30am 27.5 32.7 24.8 85 1.9 W 6 11 3 6 1010.4 - 12.0
21/08:11am 27.3 32.3 24.8 86 1.7 NW 7 9 4 5 1010.4 - 12.0
21/08:00am 27.1 32.2 24.7 87 1.7 NNW 6 9 3 5 1010.2 - 12.0
21/07:30am 26.3 31.4 24.6 90 1.2 N 6 9 3 5 1009.9 - 12.0
21/07:00am 25.3 30.1 24.2 94 0.8 N 6 9 3 5 1009.5 - 12.0
21/06:30am 24.7 30.4 23.8 95 0.6 CALM 0 0 0 0 1009.1 - 12.0
21/06:00am 24.7 30.1 23.8 95 0.6 ENE 2 4 1 2 1008.5 1008.3 12.0
21/05:30am 24.7 30.4 23.8 95 0.6 CALM 0 0 0 0 1008.7 - 12.0
21/05:00am 24.9 30.3 23.9 94 0.7 SSE 2 4 1 2 1008.2 - 12.0
21/04:30am 24.9 30.3 23.9 94 0.7 W 2 6 1 3 1008.1 - 11.8
21/04:00am 24.8 29.8 23.9 95 0.6 N 4 6 2 3 1007.9 - 11.8
21/03:30am 24.7 29.3 23.8 95 0.6 NNE 6 7 3 4 1008.3 - 11.8
21/03:00am 24.6 29.1 23.7 95 0.6 NNE 6 9 3 5 1008.4 1008.2 11.8
21/02:30am 24.7 29.6 23.7 94 0.7 ENE 4 6 2 3 1008.4 - 11.8
21/02:00am 24.8 30.1 23.7 94 0.8 E 2 4 1 2 1008.4 - 11.8
21/01:30am 24.8 29.3 23.7 94 0.8 E 6 7 3 4 1008.5 - 11.8
21/01:00am 24.7 29.6 23.6 94 0.7 ENE 4 6 2 3 1008.6 - 11.8
21/12:30am 24.8 29.7 23.6 93 0.8 ENE 4 6 2 3 1008.9 - 11.8
21/12:00am 24.9 29.8 23.7 93 0.8 NE 4 6 2 3 1009.0 1008.8 11.8
 
Date/Time
EST
Temp
°C
App
Temp
°C
Dew
Point
°C
Rel
Hum
%
Delta-T
°C
Wind Press
QNH
hPa
Press
MSL
hPa
Rain since
9am
mm
Dir  Spd
km/h
Gust
km/h
Spd
kts
Gust
kts
20/11:30pm 24.9 29.9 23.8 94 0.8 ENE 4 7 2 4 1008.9 - 11.8
20/11:00pm 24.9 29.5 23.8 94 0.8 E 6 7 3 4 1009.1 - 11.8
20/10:30pm 24.8 29.7 23.7 94 0.8 E 4 7 2 4 1009.3 - 11.8
20/10:00pm 24.7 29.6 23.6 94 0.7 NNE 4 6 2 3 1009.4 - 11.8
20/09:30pm 24.7 29.2 23.7 94 0.7 NNE 6 7 3 4 1009.3 - 11.8
20/09:00pm 24.6 29.4 23.5 94 0.7 NE 4 7 2 4 1009.1 1008.9 11.8
20/08:30pm 24.8 29.7 23.7 94 0.8 NNE 4 6 2 3 1008.5 - 11.8
20/08:00pm 24.9 29.5 23.8 94 0.8 NNE 6 9 3 5 1008.5 - 11.8
20/07:30pm 24.8 30.4 23.5 92 0.9 CALM 0 4 0 2 1008.3 - 11.8
20/07:07pm 24.9 29.9 23.8 94 0.8 SSE 4 7 2 4 1008.3 - 11.8
20/07:00pm 24.9 29.5 23.8 94 0.8 ESE 6 7 3 4 1008.5 - 11.8
20/06:37pm 24.8 29.0 23.5 92 0.9 E 7 11 4 6 1008.7 - 8.2
20/06:30pm 24.9 28.4 23.6 92 0.9 E 11 15 6 8 1008.5 - 7.6
20/06:23pm 25.1 28.4 23.9 93 0.8 E 13 19 7 10 1008.4 - 7.6
20/06:12pm 25.1 28.0 23.9 93 0.8 E 15 22 8 12 1008.1 - 7.4
20/06:00pm 25.1 29.5 23.8 92 0.9 E 7 13 4 7 1008.1 1007.9 6.6
20/05:59pm 25.1 29.1 23.8 92 0.9 E 9 13 5 7 1008.2 - 6.4
20/05:52pm 25.3 29.8 24.0 92 0.9 SE 7 13 4 7 1008.0 - 5.8
20/05:30pm 25.4 28.6 23.7 90 1.2 ENE 13 19 7 10 1007.6 - 4.8
20/05:17pm 25.8 29.7 23.6 88 1.5 NE 9 17 5 9 1007.6 - 1.8
20/05:00pm 27.2 29.7 23.2 79 2.7 NE 15 20 8 11 1007.3 - 1.0
20/04:30pm 29.7 33.3 23.8 70 4.1 W 11 17 6 9 1006.7 - 1.0
20/04:00pm 30.6 34.5 24.2 68 4.5 WNW 11 20 6 11 1006.7 - 1.0
20/03:30pm 31.0 33.2 24.2 67 4.7 NW 20 32 11 17 1006.8 - 1.0
20/03:00pm 30.5 33.3 23.7 67 4.7 WNW 15 22 8 12 1007.3 1007.1 1.0
20/02:30pm 30.4 33.9 24.2 69 4.3 NW 13 20 7 11 1007.3 - 0.8
20/02:00pm 28.6 33.6 25.4 83 2.3 NNW 9 13 5 7 1007.3 - 0.8
20/01:44pm 27.5 32.5 24.5 84 2.1 N 6 7 3 4 1007.5 - 0.8
20/01:30pm 26.7 30.8 24.0 85 1.9 NW 9 19 5 10 1007.6 - 0.8
20/01:27pm 26.7 30.3 23.8 84 2.0 NW 11 19 6 10 1007.7 - 0.8
20/01:00pm 27.1 30.7 24.3 85 1.9 NNW 13 20 7 11 1008.1 - 0.6
20/12:30pm 26.6 31.2 24.1 86 1.7 NNW 7 11 4 6 1008.6 - 0.6
20/12:11pm 25.8 30.3 23.9 89 1.3 N 7 15 4 8 1008.9 - 0.6
20/12:00pm 25.4 28.5 23.6 90 1.2 N 13 22 7 12 1009.0 1008.8 0.6
20/11:51am 25.6 27.0 22.8 84 1.9 N 20 26 11 14 1009.0 - 0.4
20/11:30am 29.5 33.1 25.0 77 3.2 W 15 26 8 14 1008.8 - 0.0
20/11:00am 29.9 33.6 24.5 73 3.8 NW 13 19 7 10 1009.3 - 0.0
20/10:30am 30.5 34.9 25.0 72 3.9 WNW 11 24 6 13 1009.4 - 0.0
20/10:00am 29.6 35.0 25.4 78 3.0 W 7 11 4 6 1009.7 - 0.0
20/09:30am 28.5 33.4 24.6 79 2.7 NW 7 13 4 7 1009.7 - 0.0
20/09:00am 28.1 33.0 24.7 82 2.4 NW 7 11 4 6 1009.8 1009.6 0.0
20/08:30am 27.0 32.4 24.5 86 1.7 NE 4 9 2 5 1009.8 - 0.0
20/08:00am 25.5 30.6 24.0 91 1.0 E 4 6 2 3 1009.6 - 0.0
20/07:30am 24.8 30.0 23.5 92 0.9 ENE 2 4 1 2 1009.3 - 0.0
20/07:00am 24.5 29.2 23.4 94 0.7 NE 4 6 2 3 1009.1 - 0.0
20/06:30am 24.4 29.5 23.3 94 0.7 ENE 2 6 1 3 1008.8 - 0.0
20/06:00am 24.4 29.0 23.2 93 0.8 E 4 6 2 3 1008.3 1008.1 0.0
20/05:30am 24.5 29.9 23.3 93 0.8 CALM 0 4 0 2 1007.9 - 0.0
20/05:00am 24.4 29.5 23.3 94 0.7 NNW 2 6 1 3 1007.6 - 0.0
20/04:30am 24.2 28.8 23.2 94 0.7 N 4 6 2 3 1007.4 - 0.0
20/04:00am 24.2 29.2 23.2 94 0.7 N 2 6 1 3 1007.3 - 0.0
20/03:30am 24.1 29.3 22.9 93 0.8 CALM 0 4 0 2 1007.4 - 0.0
20/03:00am 24.2 28.7 22.9 92 0.9 NNE 4 6 2 3 1007.6 1007.4 0.0
20/02:30am 24.4 28.9 22.9 91 1.0 NE 4 6 2 3 1007.8 - 0.0
20/02:00am 24.6 28.7 22.9 90 1.1 NNE 6 11 3 6 1008.0 - 0.0
20/01:30am 24.8 28.8 23.1 90 1.2 N 7 11 4 6 1008.4 - 0.0
20/01:00am 24.9 29.0 23.0 89 1.3 N 6 13 3 7 1008.6 - 0.0
20/12:30am 24.9 28.9 23.1 90 1.2 N 7 11 4 6 1008.9 - 0.0
20/12:00am 24.9 29.0 23.2 90 1.2 NNE 7 9 4 5 1009.1 1008.9 0.0
 
Date/Time
EST
Temp
°C
App
Temp
°C
Dew
Point
°C
Rel
Hum
%
Delta-T
°C
Wind Press
QNH
hPa
Press
MSL
hPa
Rain since
9am
mm
Dir  Spd
km/h
Gust
km/h
Spd
kts
Gust
kts
19/11:30pm 25.1 29.4 23.3 90 1.2 N 6 11 3 6 1009.5 - 0.0
19/11:00pm 24.9 28.6 23.2 90 1.2 N 9 11 5 6 1009.8 - 0.0
19/10:30pm 24.9 29.5 23.2 90 1.2 NE 4 7 2 4 1009.3 - 0.0
19/10:00pm 25.2 29.9 23.4 90 1.2 NE 4 6 2 3 1009.7 - 0.0
19/09:30pm 25.2 29.3 23.3 89 1.3 ENE 7 13 4 7 1009.6 - 0.0
19/09:00pm 25.6 29.9 23.6 89 1.4 E 7 9 4 5 1009.7 1009.5 0.0
19/08:30pm 25.8 28.9 23.5 87 1.6 E 13 20 7 11 1009.7 - 0.0
19/08:00pm 26.2 30.3 23.9 87 1.6 ESE 9 13 5 7 1009.8 - 0.0
19/07:30pm 26.5 30.6 23.2 82 2.2 SE 7 11 4 6 1009.3 - 0.0
19/07:00pm 27.0 31.2 23.5 81 2.4 SSE 7 13 4 7 1008.9 - 0.0
19/06:30pm 27.3 31.7 23.4 79 2.7 ESE 6 7 3 4 1008.7 - 0.0
19/06:00pm 27.7 32.1 23.4 77 2.9 SE 6 7 3 4 1008.3 1008.1 0.0
19/05:30pm 28.7 33.1 23.4 73 3.6 WSW 6 13 3 7 1007.9 - 0.0
19/05:00pm 29.0 33.1 23.9 74 3.5 W 9 13 5 7 1007.9 - 0.0
19/04:30pm 29.3 33.4 23.9 72 3.7 WSW 9 19 5 10 1007.8 - 0.0
19/04:00pm 29.7 33.6 24.3 73 3.8 WSW 11 19 6 10 1006.9 - 0.0

Other Formats:

Comma delimited format used in spreadsheet applications
http://www.bom.gov.au/fwo/IDQ60801/IDQ60801.94170.axf

JavaScript Object Notation format (JSON) in row-major order
http://www.bom.gov.au/fwo/IDQ60801/IDQ60801.94170.json